Terminal Aerodrome Forecast
Issued by NWS

Home | Current Version | Previous Version | Text Only | Print | Product List | Glossary On
Versions: 1 2 3 4 5 6 7 8 9 10 11 12 13 14 15 16 17 18 19
000
FTUS43 KEAX 132300
TAFSTJ
TAF
KSTJ 132332Z 1400/1424 35005KT P6SM SCT250
     FM140300 24005KT P6SM SCT250
     FM141400 33008KT P6SM VCSH BKN050
      TEMPO 1414/1418 4SM -TSRA BKN025CB
     FM141900 34012KT P6SM SCT060=

USA.gov is the U.S. government's official web portal to all federal, state and local government web resources and services.